createdAt,value
2022-08-26T00:00:00.272Z,21.65
2022-08-26T00:02:30.075Z,19.30
2022-08-26T00:04:57.598Z,19.98
2022-08-26T00:07:24.827Z,17.45
2022-08-26T00:09:54.424Z,18.20
2022-08-26T00:12:31.560Z,24.80
2022-08-26T00:15:07.662Z,20.60
2022-08-26T00:17:40.303Z,21.58
2022-08-26T00:20:10.686Z,24.25
2022-08-26T00:22:56.784Z,22.00
2022-08-26T00:25:24.626Z,20.15
2022-08-26T00:27:52.245Z,18.65
2022-08-26T00:30:24.680Z,22.23
2022-08-26T00:32:55.189Z,21.67
2022-08-26T00:35:24.515Z,20.15
2022-08-26T00:37:56.815Z,23.63
2022-08-26T00:40:34.713Z,19.75
2022-08-26T00:43:09.368Z,18.30
2022-08-26T00:45:44.200Z,19.00
2022-08-26T00:48:14.952Z,20.45
2022-08-26T00:50:50.668Z,23.15
2022-08-26T00:53:23.979Z,21.45
2022-08-26T00:56:03.851Z,23.30
2022-08-26T00:58:36.111Z,19.02
2022-08-26T01:01:03.561Z,18.52
2022-08-26T01:03:35.790Z,18.58
2022-08-26T01:06:03.919Z,19.73
2022-08-26T01:08:31.591Z,22.33
2022-08-26T01:11:01.465Z,19.50
2022-08-26T01:13:30.404Z,18.00
2022-08-26T01:16:01.257Z,18.90
2022-08-26T01:18:31.488Z,21.30
2022-08-26T01:21:19.620Z,24.85
2022-08-26T01:23:50.317Z,26.25
2022-08-26T01:26:25.336Z,20.33
2022-08-26T01:28:56.703Z,18.15
2022-08-26T01:31:27.488Z,22.13
2022-08-26T01:34:02.127Z,23.73
2022-08-26T01:36:30.089Z,24.23
2022-08-26T01:38:57.645Z,20.70
2022-08-26T01:41:27.437Z,19.90
2022-08-26T01:43:57.996Z,19.15
2022-08-26T01:46:27.701Z,18.65
2022-08-26T01:48:56.898Z,19.30
2022-08-26T01:51:27.464Z,22.13
2022-08-26T01:53:55.376Z,19.33
2022-08-26T01:56:24.047Z,21.85
2022-08-26T01:58:55.392Z,21.88
2022-08-26T02:01:29.167Z,22.63
2022-08-26T02:04:19.331Z,23.48
2022-08-26T02:06:48.854Z,23.50
2022-08-26T02:09:17.923Z,24.38
2022-08-26T02:11:48.588Z,22.75
2022-08-26T02:14:26.975Z,23.85
2022-08-26T02:16:55.989Z,19.95
2022-08-26T02:19:29.076Z,26.40
2022-08-26T02:22:00.255Z,19.42
2022-08-26T02:24:30.317Z,20.20
2022-08-26T02:26:58.573Z,26.08
2022-08-26T02:29:27.520Z,23.55
2022-08-26T02:31:56.643Z,22.83
2022-08-26T02:34:31.335Z,27.48
2022-08-26T02:37:00.914Z,22.35
2022-08-26T02:39:29.754Z,21.50
2022-08-26T02:41:57.677Z,23.83
2022-08-26T02:44:25.808Z,19.90
2022-08-26T02:46:54.215Z,23.33
2022-08-26T02:49:23.765Z,20.42
2022-08-26T02:51:52.266Z,23.80
2022-08-26T02:54:21.557Z,25.23
2022-08-26T02:56:51.996Z,19.70
2022-08-26T02:59:19.272Z,23.08
2022-08-26T03:01:52.121Z,19.88
2022-08-26T03:04:25.732Z,21.80
2022-08-26T03:06:53.985Z,22.65
2022-08-26T03:09:23.472Z,27.20
2022-08-26T03:11:51.484Z,23.65
2022-08-26T03:14:18.885Z,22.75
2022-08-26T03:16:48.428Z,22.08
2022-08-26T03:19:17.670Z,21.90
2022-08-26T03:21:45.125Z,24.88
2022-08-26T03:24:17.243Z,24.23
2022-08-26T03:26:52.443Z,25.02
2022-08-26T03:29:41.623Z,24.10
2022-08-26T03:32:09.667Z,22.00
2022-08-26T03:34:37.912Z,29.83
2022-08-26T03:37:06.118Z,22.48
2022-08-26T03:39:33.371Z,21.23
2022-08-26T03:42:00.719Z,19.58
2022-08-26T03:44:27.947Z,20.27
2022-08-26T03:46:55.499Z,21.88
2022-08-26T03:49:22.751Z,22.45
2022-08-26T03:51:50.296Z,21.25
2022-08-26T03:54:17.884Z,22.98
2022-08-26T03:56:46.584Z,20.00
2022-08-26T03:59:14.061Z,19.25
2022-08-26T04:01:41.777Z,20.13
2022-08-26T04:04:09.612Z,19.88
2022-08-26T04:06:44.704Z,23.20
2022-08-26T04:09:19.486Z,19.25
2022-08-26T04:11:50.750Z,21.55
2022-08-26T04:14:21.262Z,22.40
2022-08-26T04:16:49.435Z,24.92
2022-08-26T04:19:17.734Z,22.02
2022-08-26T04:21:46.680Z,21.88
2022-08-26T04:24:15.806Z,21.15
2022-08-26T04:26:44.960Z,24.00
2022-08-26T04:29:18.183Z,20.95
2022-08-26T04:31:48.204Z,27.75
2022-08-26T04:34:16.335Z,21.88
2022-08-26T04:36:44.626Z,22.27
2022-08-26T04:39:12.665Z,23.90
2022-08-26T04:41:40.135Z,23.63
2022-08-26T04:44:07.880Z,22.40
2022-08-26T04:46:35.922Z,21.73
2022-08-26T04:49:09.329Z,22.52
2022-08-26T04:51:37.266Z,22.00
2022-08-26T04:54:07.110Z,21.70
2022-08-26T04:56:37.509Z,19.63
2022-08-26T04:59:08.094Z,22.15
2022-08-26T05:01:46.807Z,23.02
2022-08-26T05:04:16.211Z,21.92
2022-08-26T05:06:46.926Z,19.83
2022-08-26T05:09:15.211Z,24.02
2022-08-26T05:11:43.187Z,19.77
2022-08-26T05:14:10.630Z,19.73
2022-08-26T05:16:40.311Z,22.70
2022-08-26T05:19:08.410Z,17.48
2022-08-26T05:21:37.114Z,22.10
2022-08-26T05:24:06.589Z,20.15
2022-08-26T05:26:34.093Z,21.70
2022-08-26T05:29:01.500Z,19.67
2022-08-26T05:31:31.383Z,25.17
2022-08-26T05:34:03.495Z,17.50
2022-08-26T05:36:33.904Z,21.73
2022-08-26T05:39:03.252Z,22.42
2022-08-26T05:41:36.165Z,18.90
2022-08-26T05:44:07.024Z,19.30
2022-08-26T05:46:34.968Z,18.95
2022-08-26T05:49:04.084Z,20.02
2022-08-26T05:51:31.555Z,16.20
2022-08-26T05:53:59.346Z,20.20
2022-08-26T05:56:28.020Z,18.13
2022-08-26T05:58:56.501Z,19.92
2022-08-26T06:01:27.701Z,16.42
2022-08-26T06:04:01.879Z,18.15
2022-08-26T06:06:32.355Z,20.30
2022-08-26T06:09:00.942Z,19.65
2022-08-26T06:11:29.801Z,15.18
2022-08-26T06:14:03.501Z,14.80
2022-08-26T06:19:10.437Z,13.75
2022-08-26T06:21:40.581Z,14.75
2022-08-26T06:24:30.681Z,11.15
2022-08-26T06:27:02.000Z,12.68
2022-08-26T06:29:33.161Z,13.82
2022-08-26T06:32:01.722Z,14.57
2022-08-26T06:34:30.729Z,15.13
2022-08-26T06:37:01.320Z,16.15
2022-08-26T06:39:30.771Z,11.30
2022-08-26T06:41:59.198Z,12.65
2022-08-26T06:44:27.227Z,11.95
2022-08-26T06:46:54.760Z,15.05
2022-08-26T06:49:26.633Z,11.35
2022-08-26T06:51:58.724Z,12.48
2022-08-26T06:54:27.802Z,11.40
2022-08-26T06:56:57.059Z,11.77
2022-08-26T06:59:25.014Z,13.68
2022-08-26T07:01:52.588Z,10.32
2022-08-26T07:04:23.197Z,15.55
2022-08-26T07:06:53.578Z,10.60
2022-08-26T07:09:24.059Z,10.68
2022-08-26T07:11:52.524Z,14.50
2022-08-26T07:14:21.067Z,10.93
2022-08-26T07:16:50.091Z,13.77
2022-08-26T07:19:30.368Z,12.38
2022-08-26T07:22:02.054Z,13.25
2022-08-26T07:24:29.466Z,12.10
2022-08-26T07:27:01.456Z,13.07
2022-08-26T07:29:31.065Z,14.50
2022-08-26T07:31:58.716Z,20.98
2022-08-26T07:34:27.423Z,11.82
2022-08-26T07:36:55.374Z,12.82
2022-08-26T07:39:26.156Z,14.02
2022-08-26T07:41:54.032Z,11.40
2022-08-26T07:44:21.418Z,13.57
2022-08-26T07:46:52.440Z,11.88
2022-08-26T07:49:23.634Z,11.93
2022-08-26T07:51:51.545Z,12.45
2022-08-26T07:54:19.332Z,11.82
2022-08-26T07:56:48.609Z,13.98
2022-08-26T07:59:17.364Z,13.25
2022-08-26T08:01:45.453Z,11.88
2022-08-26T08:04:14.664Z,10.00
2022-08-26T08:06:43.932Z,11.82
2022-08-26T08:09:14.148Z,13.30
2022-08-26T08:11:45.002Z,12.68
2022-08-26T08:14:13.335Z,11.15
2022-08-26T08:16:42.553Z,9.98
2022-08-26T08:19:14.072Z,9.63
2022-08-26T08:21:42.576Z,12.30
2022-08-26T08:24:10.909Z,9.18
2022-08-26T08:26:38.306Z,9.60
2022-08-26T08:29:08.057Z,9.65
2022-08-26T08:31:58.023Z,10.50
2022-08-26T08:34:25.731Z,10.07
2022-08-26T08:36:53.830Z,9.02
2022-08-26T08:39:22.499Z,13.02
2022-08-26T08:41:55.416Z,9.82
2022-08-26T08:47:03.704Z,11.15
2022-08-26T08:49:32.718Z,10.90
2022-08-26T08:52:07.030Z,9.32
2022-08-26T08:54:34.218Z,14.55
2022-08-26T08:57:11.043Z,22.80
2022-08-26T08:59:47.741Z,14.50
2022-08-26T09:02:24.061Z,12.93
2022-08-26T09:05:15.148Z,10.10
2022-08-26T09:07:57.787Z,15.82
2022-08-26T09:10:46.228Z,13.70
2022-08-26T09:13:25.260Z,12.48
2022-08-26T09:16:14.038Z,19.23
2022-08-26T09:19:10.961Z,13.18
2022-08-26T09:21:38.446Z,12.02
2022-08-26T09:24:07.503Z,10.07
2022-08-26T09:26:43.253Z,14.02
2022-08-26T09:29:43.254Z,13.07
2022-08-26T09:32:21.264Z,12.20
2022-08-26T09:34:59.621Z,14.80
2022-08-26T09:40:40.004Z,11.30
2022-08-26T09:43:16.028Z,11.55
2022-08-26T09:45:59.259Z,11.70
2022-08-26T09:48:37.046Z,10.48
2022-08-26T09:51:28.379Z,12.43
2022-08-26T09:53:59.968Z,14.30
2022-08-26T09:56:29.649Z,11.80
2022-08-26T09:58:58.449Z,13.57
2022-08-26T10:01:37.564Z,10.27
2022-08-26T10:04:10.422Z,14.38
2022-08-26T10:06:43.785Z,20.48
2022-08-26T10:09:19.727Z,15.27
2022-08-26T10:11:57.210Z,11.70
2022-08-26T10:14:39.836Z,11.93
2022-08-26T10:17:28.164Z,14.20
2022-08-26T10:20:22.856Z,11.63
2022-08-26T10:23:14.943Z,18.63
2022-08-26T10:25:56.978Z,16.58
2022-08-26T10:28:32.663Z,13.35
2022-08-26T10:31:09.327Z,13.50
2022-08-26T10:33:38.795Z,14.48
2022-08-26T10:36:36.440Z,8.18
2022-08-26T10:39:18.259Z,15.52
2022-08-26T10:41:50.547Z,13.00
2022-08-26T10:44:19.385Z,15.63
2022-08-26T10:46:55.097Z,15.63
2022-08-26T10:49:22.356Z,13.25
2022-08-26T10:51:57.821Z,17.60
2022-08-26T10:54:40.562Z,15.75
2022-08-26T10:57:23.519Z,14.85
2022-08-26T10:59:53.952Z,15.10
2022-08-26T11:02:47.136Z,14.35
2022-08-26T11:05:19.831Z,14.43
2022-08-26T11:07:52.701Z,17.17
2022-08-26T11:10:42.273Z,12.43
2022-08-26T11:13:10.508Z,16.17
2022-08-26T11:15:38.410Z,18.67
2022-08-26T11:18:09.086Z,16.80
2022-08-26T11:20:45.987Z,13.93
2022-08-26T11:23:22.999Z,16.50
2022-08-26T11:25:59.095Z,17.98
2022-08-26T11:28:38.593Z,11.13
2022-08-26T11:31:26.217Z,18.20
2022-08-26T11:34:08.716Z,12.23
2022-08-26T11:39:53.988Z,16.70
2022-08-26T11:42:23.269Z,17.77
2022-08-26T11:44:50.889Z,17.52
2022-08-26T11:47:29.259Z,14.75
2022-08-26T11:50:20.411Z,13.55
2022-08-26T11:52:52.259Z,12.32
2022-08-26T11:55:20.395Z,12.13
2022-08-26T11:57:54.619Z,13.20
2022-08-26T12:00:27.094Z,10.25
2022-08-26T12:02:55.709Z,11.98
2022-08-26T12:05:31.221Z,13.40
2022-08-26T12:08:07.139Z,19.63
2022-08-26T12:10:35.568Z,15.75
2022-08-26T12:13:04.446Z,12.50
2022-08-26T12:15:34.258Z,15.15
2022-08-26T12:18:22.749Z,20.20
2022-08-26T12:20:56.787Z,14.63
2022-08-26T12:23:27.026Z,18.13
2022-08-26T12:26:12.914Z,14.50
2022-08-26T12:28:47.009Z,15.13
2022-08-26T12:31:22.533Z,19.35
2022-08-26T12:33:50.327Z,17.35
2022-08-26T12:36:24.644Z,17.13
2022-08-26T12:38:53.752Z,17.98
2022-08-26T12:41:43.845Z,15.98
2022-08-26T12:44:53.216Z,15.27
2022-08-26T12:47:35.207Z,21.27
2022-08-26T12:50:20.673Z,20.42
2022-08-26T12:53:08.949Z,12.43
2022-08-26T12:55:41.226Z,19.27
2022-08-26T12:58:26.300Z,15.13
2022-08-26T13:00:58.442Z,22.42
2022-08-26T13:03:44.580Z,19.15
2022-08-26T13:06:15.919Z,16.40
2022-08-26T13:08:46.262Z,19.63
2022-08-26T13:11:20.574Z,14.88
2022-08-26T13:13:51.811Z,22.55
2022-08-26T13:16:20.961Z,20.10
2022-08-26T13:18:50.178Z,15.23
2022-08-26T13:21:22.459Z,18.60
2022-08-26T13:23:50.521Z,22.35
2022-08-26T13:26:18.537Z,19.90
2022-08-26T13:28:45.664Z,18.08
2022-08-26T13:31:29.705Z,15.07
2022-08-26T13:33:57.745Z,13.57
2022-08-26T13:36:25.087Z,17.70
2022-08-26T13:38:52.557Z,16.02
2022-08-26T13:41:29.512Z,17.67
2022-08-26T13:43:59.487Z,16.40
2022-08-26T13:46:28.289Z,18.63
2022-08-26T13:48:56.722Z,16.20
2022-08-26T13:51:24.583Z,19.83
2022-08-26T13:53:52.652Z,22.17
2022-08-26T13:56:20.239Z,20.42
2022-08-26T13:58:48.085Z,18.88
2022-08-26T14:01:17.909Z,16.15
2022-08-26T14:03:46.416Z,22.40
2022-08-26T14:06:14.124Z,18.35
2022-08-26T14:08:42.434Z,18.58
2022-08-26T14:11:09.986Z,19.40
2022-08-26T14:13:37.647Z,16.38
2022-08-26T14:16:09.084Z,20.70
2022-08-26T14:18:42.167Z,19.55
2022-08-26T14:21:13.699Z,25.83
2022-08-26T14:23:41.446Z,16.92
2022-08-26T14:26:12.004Z,20.15
2022-08-26T14:28:59.132Z,20.10
2022-08-26T14:31:27.284Z,25.25
2022-08-26T14:33:57.465Z,22.48
2022-08-26T14:36:32.634Z,19.58
2022-08-26T14:39:02.595Z,22.55
2022-08-26T14:41:31.976Z,20.23
2022-08-26T14:44:04.018Z,16.00
2022-08-26T14:46:35.695Z,19.60
2022-08-26T14:49:06.222Z,21.00
2022-08-26T14:51:35.717Z,19.52
2022-08-26T14:54:18.092Z,16.40
2022-08-26T14:56:49.155Z,14.52
2022-08-26T14:59:20.795Z,19.73
2022-08-26T15:01:48.495Z,17.90
2022-08-26T15:04:15.919Z,18.23
2022-08-26T15:06:43.576Z,16.77
2022-08-26T15:09:10.911Z,17.73
2022-08-26T15:11:38.098Z,18.13
2022-08-26T15:14:05.704Z,16.20
2022-08-26T15:16:33.722Z,18.40
2022-08-26T15:19:04.462Z,22.48
2022-08-26T15:21:36.083Z,17.87
2022-08-26T15:24:04.747Z,15.80
2022-08-26T15:26:33.608Z,14.65
2022-08-26T15:29:04.865Z,20.83
2022-08-26T15:31:33.925Z,16.23
2022-08-26T15:34:05.684Z,19.02
2022-08-26T15:36:33.778Z,21.27
2022-08-26T15:39:02.000Z,20.67
2022-08-26T15:41:29.942Z,16.83
2022-08-26T15:44:03.474Z,17.65
2022-08-26T15:46:32.139Z,14.32
2022-08-26T15:48:59.859Z,16.05
2022-08-26T15:51:30.320Z,14.13
2022-08-26T15:53:58.733Z,16.42
2022-08-26T15:56:28.718Z,23.23
2022-08-26T15:58:56.252Z,24.70
2022-08-26T16:01:27.870Z,20.63
2022-08-26T16:03:55.975Z,15.48
2022-08-26T16:06:25.936Z,14.73
2022-08-26T16:08:53.853Z,17.50
2022-08-26T16:11:21.311Z,12.13
2022-08-26T16:13:48.893Z,12.48
2022-08-26T16:16:16.937Z,21.65
2022-08-26T16:18:44.459Z,13.25
2022-08-26T16:21:16.601Z,18.30
2022-08-26T16:23:45.575Z,18.90
2022-08-26T16:26:15.915Z,19.50
2022-08-26T16:28:43.759Z,21.23
2022-08-26T16:31:12.213Z,16.98
2022-08-26T16:33:39.986Z,23.27
2022-08-26T16:36:08.496Z,16.70
2022-08-26T16:38:37.657Z,17.55
2022-08-26T16:41:05.417Z,20.23
2022-08-26T16:43:32.961Z,14.38
2022-08-26T16:46:00.752Z,14.55
2022-08-26T16:48:28.025Z,14.00
2022-08-26T16:50:55.754Z,16.05
2022-08-26T16:53:24.056Z,19.02
2022-08-26T16:55:51.681Z,14.43
2022-08-26T16:58:21.996Z,22.70
2022-08-26T17:00:50.049Z,15.02
2022-08-26T17:03:17.291Z,18.92
2022-08-26T17:05:44.727Z,16.73
2022-08-26T17:08:14.624Z,11.80
2022-08-26T17:10:54.737Z,21.75
2022-08-26T17:13:25.986Z,12.27
2022-08-26T17:16:05.067Z,15.15
2022-08-26T17:18:33.822Z,14.15
2022-08-26T17:21:06.233Z,14.20
2022-08-26T17:23:34.226Z,17.00
2022-08-26T17:26:03.609Z,14.48
2022-08-26T17:28:30.919Z,14.48
2022-08-26T17:30:59.490Z,14.95
2022-08-26T17:33:47.848Z,13.63
2022-08-26T17:36:18.306Z,12.48
2022-08-26T17:38:45.693Z,19.13
2022-08-26T17:41:16.500Z,12.23
2022-08-26T17:43:43.922Z,14.48
2022-08-26T17:46:13.059Z,19.88
2022-08-26T17:48:41.270Z,13.07
2022-08-26T17:51:12.774Z,15.40
2022-08-26T17:53:41.346Z,15.38
2022-08-26T17:56:10.729Z,14.35
2022-08-26T17:58:38.868Z,12.30
2022-08-26T18:01:07.394Z,12.05
2022-08-26T18:03:38.620Z,19.45
2022-08-26T18:06:10.789Z,17.13
2022-08-26T18:08:39.059Z,14.93
2022-08-26T18:11:11.686Z,15.95
2022-08-26T18:13:45.855Z,25.25
2022-08-26T18:16:16.721Z,15.35
2022-08-26T18:18:44.571Z,16.30
2022-08-26T18:21:14.476Z,20.88
2022-08-26T18:23:42.340Z,14.82
2022-08-26T18:26:11.289Z,15.45
2022-08-26T18:28:39.621Z,11.98
2022-08-26T18:31:09.011Z,17.83
2022-08-26T18:33:36.248Z,15.45
2022-08-26T18:36:06.863Z,12.80
2022-08-26T18:38:34.013Z,15.20
2022-08-26T18:41:04.561Z,12.48
2022-08-26T18:43:31.940Z,19.23
2022-08-26T18:46:05.577Z,12.55
2022-08-26T18:48:33.191Z,14.38
2022-08-26T18:51:00.554Z,17.55
2022-08-26T18:53:29.596Z,18.20
2022-08-26T18:55:57.435Z,21.92
2022-08-26T18:58:25.701Z,15.50
2022-08-26T19:00:56.364Z,13.20
2022-08-26T19:03:32.964Z,13.73
2022-08-26T19:06:00.217Z,20.42
2022-08-26T19:08:35.151Z,15.70
2022-08-26T19:11:31.657Z,15.68
2022-08-26T19:14:03.216Z,16.50
2022-08-26T19:16:34.268Z,14.57
2022-08-26T19:19:02.227Z,16.60
2022-08-26T19:21:38.672Z,19.38
2022-08-26T19:24:27.474Z,19.23
2022-08-26T19:27:01.523Z,19.58
2022-08-26T19:29:33.536Z,15.60
2022-08-26T19:32:02.462Z,14.02
2022-08-26T19:34:29.643Z,16.45
2022-08-26T19:36:58.712Z,17.17
2022-08-26T19:39:26.626Z,19.48
2022-08-26T19:41:53.842Z,18.55
2022-08-26T19:44:42.890Z,20.13
2022-08-26T19:47:11.516Z,17.45
2022-08-26T19:49:40.277Z,17.48
2022-08-26T19:52:10.002Z,13.65
2022-08-26T19:54:37.638Z,13.50
2022-08-26T19:57:05.593Z,22.20
2022-08-26T19:59:33.158Z,17.02
2022-08-26T20:02:01.802Z,17.40
2022-08-26T20:04:31.174Z,15.50
2022-08-26T20:07:00.516Z,14.48
2022-08-26T20:09:29.809Z,16.40
2022-08-26T20:12:06.440Z,13.00
2022-08-26T20:14:35.627Z,16.60
2022-08-26T20:17:04.268Z,16.92
2022-08-26T20:19:51.711Z,18.05
2022-08-26T20:22:19.546Z,13.63
2022-08-26T20:24:47.803Z,20.55
2022-08-26T20:27:15.798Z,15.00
2022-08-26T20:30:04.560Z,19.25
2022-08-26T20:32:35.511Z,21.98
2022-08-26T20:35:03.652Z,18.70
2022-08-26T20:37:30.870Z,18.38
2022-08-26T20:39:58.649Z,17.10
2022-08-26T20:42:26.594Z,15.50
2022-08-26T20:44:54.994Z,15.18
2022-08-26T20:47:23.444Z,15.38
2022-08-26T20:49:52.342Z,18.60
2022-08-26T20:52:19.995Z,16.30
2022-08-26T20:54:47.260Z,12.40
2022-08-26T20:57:14.750Z,21.88
2022-08-26T20:59:43.054Z,14.35
2022-08-26T21:02:10.619Z,14.38
2022-08-26T21:04:37.917Z,20.27
2022-08-26T21:07:05.397Z,18.75
2022-08-26T21:09:33.094Z,15.52
2022-08-26T21:12:00.261Z,14.45
2022-08-26T21:14:27.307Z,12.82
2022-08-26T21:16:54.781Z,12.57
2022-08-26T21:19:22.281Z,16.70
2022-08-26T21:21:49.783Z,15.10
2022-08-26T21:24:17.463Z,16.58
2022-08-26T21:26:44.622Z,17.15
2022-08-26T21:29:13.799Z,13.55
2022-08-26T21:31:46.182Z,17.08
2022-08-26T21:34:18.003Z,17.63
2022-08-26T21:36:47.179Z,20.08
2022-08-26T21:39:15.446Z,15.20
2022-08-26T21:41:44.784Z,16.15
2022-08-26T21:44:14.214Z,17.73
2022-08-26T21:46:42.764Z,20.40
2022-08-26T21:49:12.569Z,18.95
2022-08-26T21:51:45.124Z,17.38
2022-08-26T21:54:32.074Z,13.95
2022-08-26T21:56:59.337Z,15.07
2022-08-26T21:59:26.581Z,18.05
2022-08-26T22:01:54.624Z,15.68
2022-08-26T22:04:22.357Z,17.33
2022-08-26T22:06:52.411Z,17.25
2022-08-26T22:09:23.359Z,15.60
2022-08-26T22:11:51.000Z,16.00
2022-08-26T22:14:22.166Z,16.33
2022-08-26T22:16:50.864Z,15.38
2022-08-26T22:19:20.239Z,16.48
2022-08-26T22:21:50.193Z,23.73
2022-08-26T22:24:19.352Z,17.75
2022-08-26T22:26:47.594Z,17.15
2022-08-26T22:29:15.133Z,17.77
2022-08-26T22:31:42.423Z,14.40
2022-08-26T22:34:13.241Z,17.85
2022-08-26T22:36:46.253Z,15.40
2022-08-26T22:39:15.394Z,14.23
2022-08-26T22:41:44.209Z,20.92
2022-08-26T22:44:31.713Z,20.20
2022-08-26T22:46:59.129Z,17.27
2022-08-26T22:49:26.459Z,20.23
2022-08-26T22:51:55.404Z,15.02
2022-08-26T22:54:23.114Z,16.70
2022-08-26T22:56:50.589Z,20.85
2022-08-26T22:59:18.128Z,15.98
2022-08-26T23:01:46.500Z,21.90
2022-08-26T23:04:14.251Z,21.60
2022-08-26T23:06:47.666Z,19.50
2022-08-26T23:09:18.147Z,18.10
2022-08-26T23:11:47.548Z,14.60
2022-08-26T23:14:15.747Z,15.82
2022-08-26T23:16:43.259Z,19.25
2022-08-26T23:19:12.877Z,15.35
2022-08-26T23:21:40.867Z,16.75
2022-08-26T23:24:08.849Z,15.50
2022-08-26T23:26:37.461Z,17.40
2022-08-26T23:29:06.299Z,17.88
2022-08-26T23:31:34.125Z,15.57
2022-08-26T23:34:21.289Z,14.27
2022-08-26T23:36:48.471Z,19.88
2022-08-26T23:39:15.971Z,16.33
2022-08-26T23:41:43.211Z,19.05
2022-08-26T23:44:10.884Z,16.58
2022-08-26T23:46:38.560Z,18.00
2022-08-26T23:49:05.898Z,18.55
2022-08-26T23:51:52.908Z,17.63
2022-08-26T23:54:20.199Z,18.83
2022-08-26T23:56:47.221Z,19.98
2022-08-26T23:59:15.693Z,16.70
